Terminal Aerodrome Forecast
Issued by NWS

Home | Current Version | Previous Version | Text Only | Print | Product List | Glossary On
Versions: 1 2 3 4 5 6 7 8 9 10 11 12 13
000
FTUS45 KTFX 241124
TAFHLN
TAF
KHLN 241124Z 2412/2512 28007KT P6SM BKN050
     FM250400 26006KT P6SM SCT120
     FM250700 26006KT P6SM SCT150 WS020/27035KT=

USA.gov is the U.S. government's official web portal to all federal, state and local government web resources and services.